PWSweather.com
Personal Weather Stations
Station Observations
WISCHPK61
Green Bay Schmitt Park, Green Bay, WI 54311

Green Bay Schmitt ParkGreen Bay, WI 54311

Lat: 44.514277, Lon: -87.935067

Elevation: 735

Station Type: Acu Rite Pro Weather Center model 02032C

http://greenbayweathercam.com

High Low Average
Temperature 86.6°F30.3°C 53.8°F12.1°C 66.1°F18.9°C
Dew Point 86.3°F30.2°C 47.9°F8.8°C 62.9°F17.2°C
Winds Calm Calm Calm Calm Calm SSWCalm SSW
Wind Gusts 1.2 mph1.9 kmh -- --
Humidity 99% 55% 91%
Pressure 29.24 in990.2 mb 29.17 in987.8 mb -
Precipitation 0.00 in0.0 mm - -
Hour Temp Dew Point Humidity Winds Wind Gusts Pressure Precip Precip Rate Daily Precip Total
12:00 AM 55.0°F12.8°C 54.7°F12.6°C 99% Calm Calm -- 29.18 in988.1 mb - 0.00 in0.0 mm 0.00 in0.0 mm
01:00 AM 54.3°F12.4°C 47.9°F8.8°C 79% Calm Calm -- 29.18 in988.1 mb - 0.00 in0.0 mm 0.00 in0.0 mm
02:00 AM 54.3°F12.4°C 54.0°F12.2°C 99% Calm Calm -- 29.17 in987.8 mb - 0.00 in0.0 mm 0.00 in0.0 mm
03:00 AM 54.1°F12.3°C 53.8°F12.1°C 99% Calm Calm -- 29.17 in987.8 mb - 0.00 in0.0 mm 0.00 in0.0 mm
04:00 AM 53.8°F12.1°C 52.4°F11.3°C 95% Calm Calm -- 29.18 in988.1 mb - 0.00 in0.0 mm 0.00 in0.0 mm
05:00 AM 54.3°F12.4°C 53.7°F12.1°C 98% Calm Calm -- 29.20 in988.8 mb - 0.00 in0.0 mm 0.00 in0.0 mm
06:00 AM 56.5°F13.6°C 56.2°F13.4°C 99% Calm Calm -- 29.23 in989.8 mb - 0.00 in0.0 mm 0.00 in0.0 mm
07:00 AM 58.8°F14.9°C 58.5°F14.7°C 99% Calm Calm -- 29.23 in989.8 mb - 0.00 in0.0 mm 0.00 in0.0 mm
08:00 AM 63.5°F17.5°C 63.2°F17.3°C 99% Calm Calm -- 29.24 in990.2 mb - 0.00 in0.0 mm 0.00 in0.0 mm
09:00 AM 67.1°F19.5°C 66.8°F19.3°C 99% Calm Calm -- 29.23 in989.8 mb - 0.00 in0.0 mm 0.00 in0.0 mm
10:00 AM 67.1°F19.5°C 66.8°F19.3°C 99% Calm Calm 1.2 mph1.9 kmh 29.24 in990.2 mb - 0.00 in0.0 mm 0.00 in0.0 mm
11:00 AM 72.7°F22.6°C 72.4°F22.4°C 99% Calm Calm -- 29.23 in989.8 mb - 0.00 in0.0 mm 0.00 in0.0 mm
12:00 PM 77.2°F25.1°C 62.7°F17.1°C 61% Calm Calm -- 29.23 in989.8 mb - 0.00 in0.0 mm 0.00 in0.0 mm
01:00 PM 83.7°F28.7°C 83.4°F28.6°C 99% Calm Calm -- 29.23 in989.8 mb - 0.00 in0.0 mm 0.00 in0.0 mm
02:00 PM 86.6°F30.3°C 86.3°F30.2°C 99% Calm Calm -- 29.22 in989.5 mb - 0.00 in0.0 mm 0.00 in0.0 mm
03:00 PM 81.5°F27.5°C 64.3°F17.9°C 56% Calm Calm -- 29.23 in989.8 mb - 0.00 in0.0 mm 0.00 in0.0 mm
04:00 PM 78.6°F25.9°C 78.3°F25.7°C 99% Calm Calm -- 29.22 in989.5 mb - 0.00 in0.0 mm 0.00 in0.0 mm
05:00 PM 75.2°F24.0°C 57.9°F14.4°C 55% Calm Calm -- 29.22 in989.5 mb - 0.00 in0.0 mm 0.00 in0.0 mm
06:00 PM 72.4°F22.4°C 72.1°F22.3°C 99% Calm Calm -- 29.22 in989.5 mb - 0.00 in0.0 mm 0.00 in0.0 mm
07:00 PM 68.9°F20.5°C 68.6°F20.3°C 99% Calm Calm -- 29.22 in989.5 mb - 0.00 in0.0 mm 0.00 in0.0 mm
08:00 PM 65.7°F18.7°C 65.4°F18.6°C 99% Calm Calm -- 29.22 in989.5 mb - 0.00 in0.0 mm 0.00 in0.0 mm
09:00 PM 63.1°F17.3°C 53.9°F12.2°C 72% Calm Calm -- 29.23 in989.8 mb - 0.00 in0.0 mm 0.00 in0.0 mm
10:00 PM 61.7°F16.5°C 56.1°F13.4°C 82% Calm Calm -- 29.24 in990.2 mb - 0.00 in0.0 mm 0.00 in0.0 mm
11:00 PM 60.6°F15.9°C 60.3°F15.7°C 99% Calm Calm -- 29.24 in990.2 mb - 0.00 in0.0 mm 0.00 in0.0 mm